Time;durP1;ratioP1;P1;durP2;ratioP2;P2;SDS_P1;SDS_P2;PMS_P1;PMS_P2;Temp;Humidity;BMP_temperature;BMP_pressure;BME280_temperature;BME280_humidity;BME280_pressure;Samples;Min_cycle;Max_cycle;Signal;HPM_P1;HPM_P2
2022/01/29 00:01:54;;;;;;;;;20.25;17.25;;;;;7.89;75.87;102661.66;5117767;27;45373;-65
2022/01/29 00:04:19;;;;;;;;;23.00;19.00;;;;;7.84;76.05;102649.41;5123407;27;45533;-71
2022/01/29 00:06:45;;;;;;;;;25.50;19.50;;;;;7.78;76.19;102636.28;5113329;27;46281;-69
2022/01/29 00:09:14;;;;;;;;;23.50;22.00;;;;;7.84;75.55;102641.56;5097081;27;45675;-67
2022/01/29 00:11:43;;;;;;;;;26.25;21.00;;;;;7.83;76.38;102647.66;5100618;27;45418;-70
2022/01/29 00:14:08;;;;;;;;;27.00;22.00;;;;;7.81;75.73;102642.41;5103854;27;45255;-65
2022/01/29 00:16:34;;;;;;;;;22.75;18.00;;;;;7.81;76.10;102637.16;5101529;27;45427;-71
2022/01/29 00:19:00;;;;;;;;;21.75;19.25;;;;;7.81;75.91;102637.16;5101888;27;45789;-71
2022/01/29 00:21:25;;;;;;;;;19.50;17.50;;;;;7.81;75.70;102626.69;5100543;27;45453;-70
2022/01/29 00:23:51;;;;;;;;;21.00;20.00;;;;;7.84;75.71;102618.84;5099228;27;45504;-62
2022/01/29 00:26:20;;;;;;;;;21.50;19.25;;;;;7.81;75.73;102612.72;5098537;27;45414;-64
2022/01/29 00:28:45;;;;;;;;;19.50;17.50;;;;;7.82;76.47;102622.34;5098365;27;45298;-71
2022/01/29 00:31:11;;;;;;;;;18.00;17.00;;;;;7.81;76.35;102621.44;5098512;27;45394;-64
2022/01/29 00:33:38;;;;;;;;;23.50;17.75;;;;;7.78;76.48;102608.34;5099736;27;45271;-67
2022/01/29 00:36:04;;;;;;;;;22.50;22.00;;;;;7.81;76.40;102600.47;5100877;27;46088;-66
2022/01/29 00:38:30;;;;;;;;;23.50;20.25;;;;;7.81;76.24;102603.09;5119136;27;45389;-68
2022/01/29 00:40:55;;;;;;;;;27.00;22.25;;;;;7.84;76.14;102604.88;5116839;27;45346;-68
2022/01/29 00:43:20;;;;;;;;;23.00;21.50;;;;;7.77;75.61;102587.38;5120010;27;45568;-71
2022/01/29 00:45:46;;;;;;;;;22.50;18.50;;;;;7.81;75.76;102594.38;5121657;27;57370;-66
2022/01/29 00:48:11;;;;;;;;;30.00;21.75;;;;;7.81;75.98;102594.38;5122507;27;45399;-60
2022/01/29 00:50:36;;;;;;;;;21.50;17.75;;;;;7.81;76.18;102592.63;5124111;27;45449;-65
2022/01/29 00:53:02;;;;;;;;;19.75;18.00;;;;;7.81;75.82;102595.25;5119264;27;45428;-69
2022/01/29 00:55:27;;;;;;;;;19.75;19.75;;;;;7.82;76.03;102588.28;5119564;27;46293;-71
2022/01/29 00:57:52;;;;;;;;;21.50;20.00;;;;;7.82;76.57;102581.28;5118210;27;45463;-63
2022/01/29 01:00:18;;;;;;;;;20.75;18.50;;;;;7.83;76.47;102575.16;5120014;27;45492;-66
2022/01/29 01:02:43;;;;;;;;;20.75;17.25;;;;;7.79;76.08;102569.91;5119571;27;45467;-64
2022/01/29 01:05:10;;;;;;;;;18.50;15.50;;;;;7.77;76.09;102572.53;5119672;27;46137;-65
2022/01/29 01:07:35;;;;;;;;;21.75;18.25;;;;;7.75;77.33;102569.91;5118972;27;45440;-68
2022/01/29 01:10:01;;;;;;;;;21.50;19.00;;;;;7.75;76.36;102569.91;5118540;27;45302;-67
2022/01/29 01:12:26;;;;;;;;;22.75;20.00;;;;;7.73;77.18;102574.28;5119019;27;45481;-71
2022/01/29 01:14:51;;;;;;;;;25.00;20.25;;;;;7.69;76.92;102575.13;5119368;27;45474;-64
2022/01/29 01:17:18;;;;;;;;;24.25;22.00;;;;;7.62;77.52;102570.75;5122429;27;45332;-70
2022/01/29 01:19:44;;;;;;;;;21.75;20.50;;;;;7.63;77.96;102577.72;5125836;27;45375;-63
2022/01/29 01:22:10;;;;;;;;;21.50;19.50;;;;;7.62;79.02;102575.97;5123401;27;45436;-66
2022/01/29 01:24:35;;;;;;;;;23.25;21.50;;;;;7.58;78.42;102576.84;5120170;27;45863;-65
2022/01/29 01:27:00;;;;;;;;;21.00;19.00;;;;;7.50;79.24;102568.06;5120655;27;45500;-67
2022/01/29 01:29:26;;;;;;;;;26.25;22.00;;;;;7.55;79.28;102571.56;5136427;27;45429;-60
2022/01/29 01:31:51;;;;;;;;;26.75;21.00;;;;;7.53;79.87;102574.19;5120056;27;45295;-62
2022/01/29 01:34:19;;;;;;;;;19.50;18.00;;;;;7.52;80.24;102564.56;5119126;27;45531;-72
2022/01/29 01:36:47;;;;;;;;;21.75;18.00;;;;;7.54;80.73;102578.53;5122958;27;45382;-71
2022/01/29 01:39:17;;;;;;;;;27.00;23.00;;;;;7.52;81.18;102561.09;5136036;27;45325;-63
2022/01/29 01:41:52;;;;;;;;;20.25;18.00;;;;;7.55;81.54;102572.44;5120354;27;45350;-62
2022/01/29 01:44:17;;;;;;;;;30.75;26.25;;;;;7.53;81.63;102568.94;5119978;27;45431;-63
2022/01/29 01:46:43;;;;;;;;;30.50;26.75;;;;;7.55;81.76;102572.44;5118030;27;45276;-58
2022/01/29 01:49:09;;;;;;;;;21.25;18.25;;;;;7.50;82.19;102560.22;5119337;27;45456;-63
2022/01/29 01:51:34;;;;;;;;;25.00;21.75;;;;;7.51;82.55;102565.44;5119573;27;45553;-66
2022/01/29 01:53:59;;;;;;;;;22.25;19.25;;;;;7.50;82.79;102562.81;5118994;27;45729;-71
2022/01/29 01:56:25;;;;;;;;;24.25;22.50;;;;;7.44;83.73;102551.47;5119038;27;45411;-71
2022/01/29 01:58:51;;;;;;;;;26.75;23.25;;;;;7.43;83.48;102551.44;5119213;27;45388;-69
2022/01/29 02:01:16;;;;;;;;;22.25;21.25;;;;;7.42;84.23;102555.81;5119228;27;45373;-70
2022/01/29 02:03:44;;;;;;;;;19.75;18.25;;;;;7.40;84.77;102557.53;5119332;27;46316;-70
2022/01/29 02:06:10;;;;;;;;;27.50;22.00;;;;;7.38;84.20;102553.16;5117940;27;45478;-65
2022/01/29 02:08:35;;;;;;;;;25.25;21.25;;;;;7.32;84.33;102538.28;5119537;27;45264;-70
2022/01/29 02:11:02;;;;;;;;;23.75;21.50;;;;;7.36;85.30;102544.41;5121509;27;45347;-70
2022/01/29 02:13:28;;;;;;;;;20.25;18.75;;;;;7.35;84.82;102546.16;5119901;27;46182;-71
2022/01/29 02:15:55;;;;;;;;;21.50;21.00;;;;;7.31;85.12;102528.69;5119162;27;45348;-69
2022/01/29 02:18:20;;;;;;;;;24.50;21.50;;;;;7.34;84.86;102536.53;5118801;27;45243;-69
2022/01/29 02:20:47;;;;;;;;;24.50;20.25;;;;;7.33;85.55;102534.78;5119440;27;45434;-67
2022/01/29 02:23:13;;;;;;;;;24.75;20.75;;;;;7.33;85.23;102529.56;5123299;27;46303;-68
2022/01/29 02:25:42;;;;;;;;;20.75;18.75;;;;;7.31;85.45;102532.19;5130489;27;45132;-72
2022/01/29 02:28:14;;;;;;;;;21.00;16.50;;;;;7.19;85.28;102505.06;5129868;27;45326;-68
2022/01/29 02:30:47;;;;;;;;;18.50;18.00;;;;;7.28;85.60;102520.81;5122856;27;45225;-69
2022/01/29 02:33:14;;;;;;;;;19.50;19.50;;;;;7.26;85.27;102520.81;5120510;27;45345;-73
2022/01/29 02:35:44;;;;;;;;;21.25;19.00;;;;;7.27;85.67;102509.47;5120513;27;45394;-71
2022/01/29 02:38:11;;;;;;;;;21.75;18.00;;;;;7.24;85.49;102495.47;5119980;27;45268;-65
2022/01/29 02:40:49;;;;;;;;;24.50;22.00;;;;;7.27;85.20;102506.84;5119060;27;45440;-70
2022/01/29 02:43:16;;;;;;;;;21.75;18.00;;;;;7.30;86.02;102498.13;5118549;27;45247;-69
2022/01/29 02:45:42;;;;;;;;;21.75;19.50;;;;;7.30;85.43;102496.41;5117285;27;46012;-73
2022/01/29 02:48:09;;;;;;;;;16.75;16.75;;;;;7.24;85.68;102472.81;5118267;27;45369;-68
2022/01/29 02:50:35;;;;;;;;;22.25;20.25;;;;;7.35;85.64;102485.94;5118675;27;45562;-66
2022/01/29 02:53:00;;;;;;;;;20.00;20.00;;;;;7.35;85.80;102487.69;5118069;27;46124;-70
2022/01/29 02:55:28;;;;;;;;;22.75;18.75;;;;;7.33;85.86;102473.72;5118131;27;45425;-71
2022/01/29 02:57:53;;;;;;;;;24.50;19.25;;;;;7.34;85.93;102473.72;5118196;27;45239;-77
2022/01/29 03:00:19;;;;;;;;;23.00;16.50;;;;;7.35;85.69;102474.59;5101860;27;45429;-70
2022/01/29 03:02:44;;;;;;;;;10.00;7.00;;;;;7.33;86.18;102469.34;5098892;27;45407;-78
2022/01/29 03:05:09;;;;;;;;;23.00;17.75;;;;;7.32;85.56;102464.97;5098430;27;45397;-78
2022/01/29 03:07:35;;;;;;;;;19.25;16.25;;;;;7.33;85.57;102465.88;5096788;27;45396;-78
2022/01/29 03:10:00;;;;;;;;;17.75;16.00;;;;;7.34;85.95;102459.75;5103024;27;45583;-72
2022/01/29 03:12:26;;;;;;;;;15.00;14.00;;;;;7.37;86.23;102463.25;5096748;27;46219;-74
2022/01/29 03:14:51;;;;;;;;;15.75;15.25;;;;;7.38;85.16;102456.28;5090799;27;45359;-76
2022/01/29 03:17:16;;;;;;;;;16.50;15.75;;;;;7.37;85.70;102455.41;5092171;27;44869;-80
2022/01/29 03:19:42;;;;;;;;;15.50;12.00;;;;;7.38;85.77;102462.38;5096754;27;45449;-74
2022/01/29 03:22:07;;;;;;;;;19.50;15.75;;;;;7.39;85.87;102450.19;5099003;27;46245;-79
2022/01/29 03:24:32;;;;;;;;;16.00;14.75;;;;;7.38;85.82;102457.16;5099923;27;51857;-75
2022/01/29 03:26:58;;;;;;;;;15.50;14.25;;;;;7.37;85.65;102458.00;5101150;27;45411;-77
2022/01/29 03:29:23;;;;;;;;;18.00;15.50;;;;;7.40;85.80;102451.94;5101258;27;45527;-75
2022/01/29 03:31:48;;;;;;;;;17.50;14.25;;;;;7.40;86.12;102449.31;5101095;27;46066;-72
2022/01/29 03:34:14;;;;;;;;;19.75;15.75;;;;;7.40;86.21;102458.03;5100125;27;45779;-77
2022/01/29 03:36:39;;;;;;;;;16.25;15.75;;;;;7.41;85.68;102457.16;5107896;27;45491;-76
2022/01/29 03:39:05;;;;;;;;;14.00;14.00;;;;;7.41;85.50;102459.78;5099225;27;45308;-74
2022/01/29 03:41:31;;;;;;;;;15.75;15.75;;;;;7.47;85.86;102464.16;5100331;27;46125;-77
2022/01/29 03:44:01;;;;;;;;;15.00;13.50;;;;;7.49;85.46;102461.56;5108235;27;45431;-78
2022/01/29 03:46:27;;;;;;;;;20.00;17.00;;;;;7.40;85.76;102446.69;5110944;27;44958;-76
2022/01/29 03:48:52;;;;;;;;;17.50;13.50;;;;;7.47;85.43;102452.84;5106887;27;45349;-76
2022/01/29 03:51:17;;;;;;;;;21.25;15.50;;;;;7.49;86.41;102458.94;5105398;27;45381;-79
2022/01/29 03:53:43;;;;;;;;;13.50;13.00;;;;;7.49;86.02;102453.72;5107459;27;45412;-73
2022/01/29 03:56:08;;;;;;;;;15.75;12.25;;;;;7.50;86.67;102456.31;5104739;27;45511;-76
2022/01/29 03:58:35;;;;;;;;;14.00;13.00;;;;;7.50;85.88;102447.59;5109224;27;45715;-76
2022/01/29 04:01:00;;;;;;;;;15.25;14.00;;;;;7.51;86.08;102454.59;5107051;27;45635;-77
2022/01/29 04:03:25;;;;;;;;;15.75;12.25;;;;;7.57;85.92;102459.84;5098440;27;45494;-68
2022/01/29 04:05:51;;;;;;;;;16.50;16.25;;;;;7.56;86.75;102452.84;5095825;27;45312;-59
2022/01/29 04:08:18;;;;;;;;;20.75;16.75;;;;;7.60;86.43;102459.84;5099265;27;45547;-60
2022/01/29 04:10:43;;;;;;;;;20.00;14.75;;;;;7.64;86.89;102455.47;5103084;27;46544;-59
2022/01/29 04:13:11;;;;;;;;;18.75;14.00;;;;;7.65;86.90;102458.13;5096046;27;45161;-58
2022/01/29 04:15:37;;;;;;;;;17.25;16.00;;;;;7.64;86.80;102448.50;5096297;27;45411;-62
2022/01/29 04:18:03;;;;;;;;;17.50;16.25;;;;;7.65;85.99;102446.75;5098527;27;45384;-64
2022/01/29 04:20:28;;;;;;;;;20.00;16.50;;;;;7.64;86.46;102447.63;5096508;27;46093;-63
2022/01/29 04:22:53;;;;;;;;;17.50;17.00;;;;;7.65;86.65;102441.50;5098162;27;45295;-64
2022/01/29 04:25:19;;;;;;;;;14.00;12.75;;;;;7.65;86.73;102439.78;5097019;27;45331;-65
2022/01/29 04:27:46;;;;;;;;;14.50;13.50;;;;;7.68;87.03;102437.16;5095310;27;45576;-58
2022/01/29 04:30:41;;;;;;;;;13.50;13.25;;;;;7.69;86.71;102454.63;5095989;27;45356;-59
2022/01/29 04:36:04;;;;;;;;;15.25;15.00;;;;;7.69;86.24;102459.88;5086527;27;45279;-62
2022/01/29 04:38:30;;;;;;;;;13.50;13.00;;;;;7.70;86.41;102453.75;5096320;27;45231;-64
2022/01/29 04:40:57;;;;;;;;;17.75;15.25;;;;;7.72;87.00;102452.03;5097011;27;45344;-62
2022/01/29 04:43:23;;;;;;;;;14.00;13.75;;;;;7.71;86.84;102437.19;5100663;27;45381;-64
2022/01/29 04:45:48;;;;;;;;;16.00;15.25;;;;;7.70;86.71;102440.66;5098293;27;45346;-64
2022/01/29 04:48:14;;;;;;;;;17.50;14.00;;;;;7.74;86.93;102438.91;5102071;27;45492;-57
2022/01/29 04:50:39;;;;;;;;;16.75;14.00;;;;;7.75;87.14;102438.94;5097486;27;45310;-58
2022/01/29 04:53:05;;;;;;;;;16.50;14.00;;;;;7.75;86.59;102441.53;5097264;27;45305;-57
2022/01/29 04:55:32;;;;;;;;;16.50;15.50;;;;;7.76;87.31;102439.78;5096322;27;45298;-64
2022/01/29 04:57:57;;;;;;;;;16.75;15.00;;;;;7.74;87.80;102439.78;5096287;27;45532;-71
2022/01/29 05:00:22;;;;;;;;;16.00;14.00;;;;;7.75;87.73;102433.69;5099585;27;46089;-60
2022/01/29 05:02:50;;;;;;;;;19.50;15.50;;;;;7.79;88.03;102438.94;5099921;27;45231;-75
2022/01/29 05:05:16;;;;;;;;;17.00;14.25;;;;;7.81;87.68;102438.03;5100428;27;45412;-75
2022/01/29 05:07:41;;;;;;;;;17.75;14.75;;;;;7.84;88.10;102435.44;5103876;27;45545;-76
2022/01/29 05:10:07;;;;;;;;;14.25;14.00;;;;;7.83;87.90;102433.69;5104131;27;45976;-81
2022/01/29 05:13:20;;;;;;;;;14.00;14.00;;;;;7.85;87.97;102438.94;5099870;27;45439;-78
2022/01/29 05:28:45;;;;;;;;;17.25;15.50;;;;;7.92;87.33;102442.41;5104859;27;45491;-78
2022/01/29 05:31:11;;;;;;;;;15.00;15.00;;;;;7.91;87.71;102433.69;5102977;27;45363;-73
2022/01/29 05:33:36;;;;;;;;;14.25;14.25;;;;;7.95;87.38;102445.03;5100307;27;45781;-77
2022/01/29 05:36:02;;;;;;;;;18.75;15.00;;;;;7.94;87.56;102433.69;5103517;27;45416;-74
2022/01/29 05:38:27;;;;;;;;;16.25;14.25;;;;;7.98;87.95;102439.84;5101478;27;45496;-68
2022/01/29 05:40:56;;;;;;;;;17.25;15.75;;;;;7.98;87.83;102430.22;5099024;27;45263;-70
2022/01/29 05:43:22;;;;;;;;;20.50;16.00;;;;;7.98;87.98;102426.72;5098912;27;45394;-69
2022/01/29 05:45:47;;;;;;;;;17.50;16.00;;;;;7.96;88.05;102433.72;5098830;27;45309;-74
2022/01/29 05:48:13;;;;;;;;;18.50;16.25;;;;;7.96;88.05;102431.09;5098707;27;45421;-76
2022/01/29 05:50:38;;;;;;;;;16.25;16.25;;;;;7.98;87.97;102426.72;5099025;27;46179;-77
2022/01/29 05:53:04;;;;;;;;;18.75;16.00;;;;;8.00;87.67;102427.59;5098446;27;45368;-78
2022/01/29 05:55:29;;;;;;;;;16.25;15.00;;;;;8.00;87.78;102422.38;5098589;27;45388;-76
2022/01/29 05:57:54;;;;;;;;;16.00;14.75;;;;;8.01;88.19;102416.25;5100683;27;45329;-58
2022/01/29 06:00:20;;;;;;;;;16.75;14.75;;;;;7.99;87.45;102418.84;5100517;27;46066;-62
2022/01/29 06:02:45;;;;;;;;;16.00;13.75;;;;;8.04;88.45;102419.72;5099417;27;45385;-60
2022/01/29 06:05:10;;;;;;;;;19.00;16.75;;;;;8.07;87.71;102417.97;5097956;27;45909;-76
2022/01/29 06:07:36;;;;;;;;;21.50;21.25;;;;;8.07;87.73;102415.34;5100026;27;45332;-74
2022/01/29 06:10:01;;;;;;;;;18.75;16.75;;;;;8.10;87.57;102410.13;5114073;27;46301;-74
2022/01/29 06:12:26;;;;;;;;;21.00;16.75;;;;;8.10;87.67;102417.97;5107834;27;45181;-74
2022/01/29 06:14:52;;;;;;;;;20.00;17.00;;;;;8.12;88.03;102421.47;5105121;27;45342;-71
2022/01/29 06:17:17;;;;;;;;;18.75;17.00;;;;;8.09;88.31;102418.84;5103374;27;45634;-75
2022/01/29 06:19:43;;;;;;;;;22.25;18.00;;;;;8.09;88.52;102424.09;5102684;27;46949;-73
2022/01/29 06:22:12;;;;;;;;;19.75;16.75;;;;;8.07;88.00;102417.97;5100690;27;45383;-66
2022/01/29 06:24:37;;;;;;;;;18.00;15.50;;;;;8.09;88.12;102419.75;5099643;27;45357;-76
2022/01/29 06:27:03;;;;;;;;;19.00;16.00;;;;;8.09;88.11;102424.97;5102379;27;45504;-76
2022/01/29 06:29:28;;;;;;;;;18.25;15.50;;;;;8.12;88.18;102427.59;5100144;27;45283;-75
2022/01/29 06:31:54;;;;;;;;;16.75;15.00;;;;;8.14;87.80;102414.47;5098510;27;45297;-78
2022/01/29 06:34:19;;;;;;;;;16.25;14.50;;;;;8.13;88.18;102417.97;5098941;27;45298;-77
2022/01/29 06:36:45;;;;;;;;;19.50;16.75;;;;;8.18;88.25;102413.59;5098744;27;45536;-78
2022/01/29 06:39:10;;;;;;;;;20.25;15.50;;;;;8.19;88.31;102426.72;5113066;27;45356;-76
2022/01/29 06:41:35;;;;;;;;;15.00;13.25;;;;;8.22;87.86;102420.59;5098823;27;45259;-77
2022/01/29 06:44:01;;;;;;;;;16.50;15.25;;;;;8.26;88.15;102427.56;5098345;27;45251;-78
2022/01/29 06:46:26;;;;;;;;;18.00;14.50;;;;;8.26;88.10;102414.47;5101224;27;45237;-78
2022/01/29 06:48:52;;;;;;;;;16.50;13.25;;;;;8.26;88.15;102411.84;5100056;27;46337;-78
2022/01/29 06:51:18;;;;;;;;;15.50;14.25;;;;;8.30;88.37;102418.84;5097910;27;45223;-76
2022/01/29 06:53:43;;;;;;;;;18.00;14.25;;;;;8.33;87.92;102412.72;5097905;27;45450;-78
2022/01/29 06:56:08;;;;;;;;;13.25;13.25;;;;;8.36;87.69;102403.97;5098236;27;45444;-79
2022/01/29 06:58:35;;;;;;;;;16.50;12.75;;;;;8.35;88.08;102408.34;5098114;27;45430;-78
2022/01/29 07:01:01;;;;;;;;;12.00;11.75;;;;;8.41;87.71;102407.44;5099797;27;45711;-79
2022/01/29 07:03:27;;;;;;;;;13.00;9.00;;;;;8.39;87.82;102404.84;5104009;27;45385;-78
2022/01/29 07:05:52;;;;;;;;;15.75;11.00;;;;;8.38;87.78;102399.59;5098927;27;45449;-80
2022/01/29 07:08:18;;;;;;;;;12.50;12.25;;;;;8.42;87.93;102411.81;5099515;27;45390;-79
2022/01/29 07:10:45;;;;;;;;;12.50;12.00;;;;;8.43;87.89;102411.84;5101821;27;45390;-70
2022/01/29 07:13:10;;;;;;;;;13.25;12.75;;;;;8.34;88.27;102399.59;5102771;27;45290;-78
2022/01/29 07:15:36;;;;;;;;;11.00;10.00;;;;;8.42;88.03;102414.44;5098699;27;45622;-76
2022/01/29 07:18:01;;;;;;;;;12.25;11.00;;;;;8.45;87.94;102406.56;5097599;27;45289;-72
2022/01/29 07:20:26;;;;;;;;;13.75;12.25;;;;;8.46;87.81;102405.69;5097414;27;45301;-78
2022/01/29 07:22:52;;;;;;;;;13.00;13.00;;;;;8.46;88.02;102400.44;5096420;27;45713;-72
2022/01/29 07:25:17;;;;;;;;;13.00;11.75;;;;;8.49;88.14;102403.13;5097241;27;45633;-78
2022/01/29 07:27:42;;;;;;;;;12.00;12.00;;;;;8.52;88.37;102399.59;5096775;27;46065;-74
2022/01/29 07:30:09;;;;;;;;;19.75;16.00;;;;;8.51;88.08;102396.13;5095689;27;45229;-73
2022/01/29 07:32:34;;;;;;;;;14.50;14.00;;;;;8.56;88.11;102397.00;5097286;27;45226;-78
2022/01/29 07:34:59;;;;;;;;;13.75;9.75;;;;;8.55;88.08;102396.97;5101134;27;45391;-77
2022/01/29 07:37:24;;;;;;;;;16.50;11.25;;;;;8.59;88.02;102402.22;5104642;27;45415;-73
2022/01/29 07:39:50;;;;;;;;;11.00;9.50;;;;;8.60;87.32;102398.72;5106853;27;45261;-78
2022/01/29 07:42:15;;;;;;;;;13.50;11.75;;;;;8.66;87.41;102399.59;5112856;27;45253;-79
2022/01/29 07:44:40;;;;;;;;;11.00;10.00;;;;;8.69;87.42;102413.56;5108604;27;45173;-80
2022/01/29 07:47:06;;;;;;;;;10.25;9.75;;;;;8.68;87.36;102403.94;5109291;27;47357;-79
2022/01/29 07:49:32;;;;;;;;;11.75;9.75;;;;;8.70;87.44;102412.66;5110200;27;45295;-64
2022/01/29 07:51:57;;;;;;;;;7.75;7.75;;;;;8.72;87.26;102407.44;5106093;27;45192;-73
2022/01/29 07:54:22;;;;;;;;;8.25;7.50;;;;;8.75;87.27;102408.28;5102331;27;45381;-78
2022/01/29 07:56:48;;;;;;;;;7.00;7.00;;;;;8.80;87.42;102403.03;5096823;27;45980;-62
2022/01/29 07:59:13;;;;;;;;;7.75;7.75;;;;;8.81;87.28;102393.41;5097052;27;45433;-59
2022/01/29 08:01:39;;;;;;;;;7.00;7.00;;;;;8.86;87.24;102405.63;5097153;27;45368;-58
2022/01/29 08:04:04;;;;;;;;;13.00;10.50;;;;;8.87;87.19;102396.88;5095653;27;45506;-65
2022/01/29 08:06:29;;;;;;;;;9.25;8.00;;;;;8.95;87.17;102403.84;5096134;27;46407;-62
2022/01/29 08:08:56;;;;;;;;;6.75;6.75;;;;;9.00;86.94;102397.69;5100760;27;45400;-62
2022/01/29 08:11:22;;;;;;;;;8.00;7.00;;;;;9.05;86.70;102408.19;5101046;27;45374;-70
2022/01/29 08:13:47;;;;;;;;;6.25;6.25;;;;;9.08;86.61;102399.44;5096121;27;45596;-67
2022/01/29 08:16:14;;;;;;;;;7.25;7.25;;;;;9.11;86.85;102397.66;5097935;27;46144;-61
2022/01/29 08:18:42;;;;;;;;;6.00;6.00;;;;;9.17;86.81;102397.63;5098016;27;45400;-67
2022/01/29 08:21:08;;;;;;;;;6.25;6.25;;;;;9.21;86.58;102399.34;5096551;27;45365;-60
2022/01/29 08:23:33;;;;;;;;;6.50;6.50;;;;;9.27;86.40;102394.94;5096591;27;45476;-59
2022/01/29 08:25:59;;;;;;;;;3.00;3.00;;;;;9.28;86.26;102401.94;5096654;27;45412;-61
2022/01/29 08:28:24;;;;;;;;;6.50;5.50;;;;;9.28;86.16;102397.56;5097103;27;45238;-61
2022/01/29 08:30:50;;;;;;;;;10.00;9.00;;;;;9.27;86.35;102390.56;5097574;27;45363;-60
2022/01/29 08:33:18;;;;;;;;;7.25;6.00;;;;;9.30;86.39;102389.66;5098440;27;45386;-64
2022/01/29 08:35:45;;;;;;;;;5.25;5.00;;;;;9.26;86.17;102391.47;5102253;27;47035;-72
2022/01/29 08:38:11;;;;;;;;;6.25;5.00;;;;;9.34;86.37;102397.53;5097989;27;45345;-67
2022/01/29 08:40:36;;;;;;;;;8.00;5.75;;;;;9.30;86.41;102390.56;5099307;27;45447;-65
2022/01/29 08:43:02;;;;;;;;;5.00;5.00;;;;;9.39;86.24;102404.50;5100002;27;45322;-63
2022/01/29 08:45:27;;;;;;;;;6.50;6.25;;;;;9.40;86.27;102393.13;5099673;27;46077;-66
2022/01/29 08:47:54;;;;;;;;;5.00;4.00;;;;;9.44;86.10;102400.09;5099620;27;45347;-62
2022/01/29 08:50:20;;;;;;;;;4.75;4.00;;;;;9.46;86.19;102396.56;5100056;27;45557;-61
2022/01/29 08:52:46;;;;;;;;;8.00;4.75;;;;;9.46;86.10;102396.56;5100065;27;45311;-66
2022/01/29 08:55:11;;;;;;;;;6.00;5.00;;;;;9.49;85.93;102390.44;5099482;27;45299;-66
2022/01/29 08:57:37;;;;;;;;;3.75;3.00;;;;;9.47;86.11;102390.44;5099386;27;45304;-70
2022/01/29 09:00:05;;;;;;;;;5.75;4.00;;;;;9.44;85.90;102387.81;5099401;27;45231;-71
2022/01/29 09:02:30;;;;;;;;;5.00;5.00;;;;;9.52;86.06;102393.03;5099587;27;45284;-64
2022/01/29 09:04:57;;;;;;;;;7.25;4.50;;;;;9.54;86.03;102393.03;5099054;27;45257;-67
2022/01/29 09:07:23;;;;;;;;;7.50;7.50;;;;;9.49;85.96;102374.69;5100007;27;45271;-66
2022/01/29 09:09:49;;;;;;;;;8.75;7.00;;;;;9.55;85.99;102398.28;5098734;27;45267;-67
2022/01/29 09:12:14;;;;;;;;;5.00;5.00;;;;;9.54;86.13;102388.66;5099098;27;45325;-63
2022/01/29 09:14:40;;;;;;;;;3.00;3.00;;;;;9.54;86.06;102379.88;5098833;27;45286;-71
2022/01/29 09:17:05;;;;;;;;;5.50;4.00;;;;;9.55;85.76;102387.78;5099235;27;45309;-62
2022/01/29 09:19:31;;;;;;;;;7.50;5.00;;;;;9.54;85.78;102387.75;5099775;27;45410;-75
2022/01/29 09:21:57;;;;;;;;;4.50;4.00;;;;;9.59;85.83;102386.00;5102636;27;45554;-62
2022/01/29 09:24:22;;;;;;;;;5.50;5.50;;;;;9.64;85.87;102385.06;5100948;27;45335;-75
2022/01/29 09:26:48;;;;;;;;;6.25;5.00;;;;;9.68;85.63;102385.94;5098177;27;45326;-74
2022/01/29 09:29:13;;;;;;;;;5.50;5.00;;;;;9.69;85.52;102374.56;5099975;27;45304;-74
2022/01/29 09:31:39;;;;;;;;;2.50;2.50;;;;;9.77;85.42;102380.63;5098980;27;45461;-74
2022/01/29 09:34:04;;;;;;;;;3.00;3.00;;;;;9.77;85.41;102375.34;5098876;27;47531;-72
2022/01/29 09:36:30;;;;;;;;;1.00;1.00;;;;;9.86;85.13;102376.16;5100246;27;45433;-73
2022/01/29 09:38:55;;;;;;;;;4.50;4.00;;;;;9.86;85.07;102366.50;5101632;27;45379;-76
2022/01/29 09:41:24;;;;;;;;;4.50;4.50;;;;;9.98;84.69;102373.44;5106285;27;45160;-74
2022/01/29 09:43:51;;;;;;;;;5.25;4.75;;;;;10.01;84.83;102368.16;5107195;27;46166;-71
2022/01/29 09:46:17;;;;;;;;;1.75;1.50;;;;;10.02;84.42;102364.63;5099795;27;45170;-74
2022/01/29 09:48:44;;;;;;;;;4.25;4.25;;;;;10.04;84.13;102370.75;5100704;27;45394;-69
2022/01/29 09:51:13;;;;;;;;;6.25;4.75;;;;;10.07;84.66;102365.44;5100250;27;45368;-74
2022/01/29 09:53:43;;;;;;;;;6.25;5.50;;;;;10.14;84.12;102373.28;5099464;27;47045;-71
2022/01/29 09:56:09;;;;;;;;;6.00;5.00;;;;;10.15;83.60;102365.41;5111560;27;45263;-68
2022/01/29 09:58:34;;;;;;;;;7.00;3.75;;;;;10.17;83.83;102370.63;5115899;27;45355;-67
2022/01/29 10:01:00;;;;;;;;;5.75;5.75;;;;;10.15;83.94;102370.66;5107249;27;45611;-71
2022/01/29 10:03:26;;;;;;;;;4.50;3.75;;;;;10.16;83.66;102377.66;5098858;27;45979;-63
2022/01/29 10:05:53;;;;;;;;;4.25;4.25;;;;;10.15;83.54;102380.28;5099327;27;45497;-70
2022/01/29 10:08:20;;;;;;;;;6.25;5.25;;;;;10.17;84.08;102386.41;5103104;27;45393;-60
2022/01/29 10:10:46;;;;;;;;;5.00;4.25;;;;;10.19;83.96;102382.00;5098202;27;45416;-64
2022/01/29 10:13:30;;;;;;;;;5.25;5.25;;;;;10.25;83.95;102379.31;5097528;27;46221;-62
2022/01/29 10:16:19;;;;;;;;;4.50;3.50;;;;;10.29;83.31;102382.78;5097744;27;45373;-64
2022/01/29 10:19:03;;;;;;;;;4.00;4.00;;;;;10.30;83.34;102381.91;5100110;27;45415;-68
2022/01/29 10:21:32;;;;;;;;;6.00;5.25;;;;;10.30;83.63;102393.28;5099318;27;45937;-69
2022/01/29 10:24:09;;;;;;;;;4.75;4.50;;;;;10.28;83.30;102383.69;5098341;27;47476;-61
2022/01/29 10:26:37;;;;;;;;;3.50;3.00;;;;;10.23;83.39;102379.34;5100648;27;45506;-66
2022/01/29 10:29:08;;;;;;;;;5.75;4.50;;;;;10.32;83.30;102390.66;5098250;27;45329;-66
2022/01/29 10:31:43;;;;;;;;;6.50;5.75;;;;;10.33;83.04;102381.88;5098160;27;45464;-62
2022/01/29 10:34:35;;;;;;;;;6.00;4.25;;;;;10.38;83.17;102382.69;5097917;27;45314;-59
2022/01/29 10:37:21;;;;;;;;;7.75;7.50;;;;;10.41;83.43;102382.69;5094746;27;45234;-64
2022/01/29 10:39:49;;;;;;;;;5.00;4.50;;;;;10.46;83.58;102388.78;5097938;27;45343;-62
2022/01/29 10:42:32;;;;;;;;;5.75;5.75;;;;;10.47;83.22;102387.00;5097782;27;45461;-61
2022/01/29 10:45:02;;;;;;;;;4.25;4.25;;;;;10.51;83.21;102383.44;5100232;27;47268;-65
2022/01/29 10:47:27;;;;;;;;;4.50;4.50;;;;;10.52;83.26;102369.41;5098111;27;45307;-59
2022/01/29 10:50:02;;;;;;;;;4.25;4.25;;;;;10.60;82.53;102377.22;5097602;27;45198;-61
2022/01/29 10:52:32;;;;;;;;;6.50;3.50;;;;;10.60;82.52;102372.84;5096527;27;45565;-60
2022/01/29 10:55:00;;;;;;;;;3.50;3.50;;;;;10.62;82.58;102381.59;5098302;27;47395;-60
2022/01/29 10:57:34;;;;;;;;;4.25;4.00;;;;;10.64;82.12;102376.31;5096349;27;45285;-62
2022/01/29 10:59:59;;;;;;;;;3.75;3.25;;;;;10.60;82.25;102383.38;5097584;27;45434;-64
2022/01/29 11:02:28;;;;;;;;;3.50;3.00;;;;;10.56;82.10;102367.63;5098500;27;45506;-64
2022/01/29 11:04:55;;;;;;;;;5.00;4.00;;;;;10.63;82.24;102377.19;5098429;27;46337;-67
2022/01/29 11:07:26;;;;;;;;;4.25;3.25;;;;;10.68;82.29;102379.78;5097116;27;45277;-62
2022/01/29 11:09:52;;;;;;;;;5.75;4.25;;;;;10.68;82.22;102378.00;5096213;27;45354;-60
2022/01/29 11:12:22;;;;;;;;;3.25;3.25;;;;;10.65;82.29;102373.66;5097836;27;45560;-65
2022/01/29 11:14:49;;;;;;;;;4.00;3.75;;;;;10.64;81.93;102378.94;5097506;27;47039;-65
2022/01/29 11:17:16;;;;;;;;;4.50;4.50;;;;;10.64;82.38;102384.19;5096094;27;46003;-73
2022/01/29 11:19:43;;;;;;;;;3.75;2.25;;;;;10.63;82.37;102393.88;5096094;27;45282;-71
2022/01/29 11:22:10;;;;;;;;;6.75;5.25;;;;;10.64;82.22;102382.47;5092193;27;45434;-75
2022/01/29 11:24:37;;;;;;;;;7.75;4.50;;;;;10.64;82.31;102378.94;5085102;27;45694;-75
2022/01/29 11:27:27;;;;;;;;;4.00;4.00;;;;;10.69;82.71;102385.00;5076493;28;45417;-72
2022/01/29 11:30:02;;;;;;;;;6.00;6.00;;;;;10.71;82.77;102385.00;5069593;27;45314;-68
2022/01/29 11:32:32;;;;;;;;;8.00;6.00;;;;;10.67;82.67;102373.63;5078357;27;45274;-72
2022/01/29 11:35:19;;;;;;;;;3.50;2.75;;;;;10.70;82.71;102384.13;5099684;27;47291;-70
2022/01/29 11:37:53;;;;;;;;;5.25;5.25;;;;;10.68;83.02;102380.63;5077695;27;45456;-67